Kolobrzeg, Poland
Current Conditions -  °F | °C
As of 5:50 PM on Friday 31 Oct 2014 (Local Time) from EDAH Reporting Station
Haze Haze  
Wind Chill: 50°   Ceiling: 2700
Heat Index: 50°   Visibility: 3mi
Dew Point: 48°   Wind: 8mph
Humidity: 94%   Direction: 140°SE
Pressure: 30.24"   Gusts: NA
Location:  54.19°N, 15.57°E
Report Text: EDAH 311550Z 14007KT 5000 BR OVC027 10/09 Q1024
Loading
Personal Weather Stations






























Interactive Weather Map
Tropical Storm Tracking
New forecast layout! Learn more

10-Day Weather Forecast

Advertisements
Track Severe Weather on mobile